sensor_id;sensor_type;location;lat;lon;timestamp;pressure;altitude;pressure_sealevel;temperature;humidity
55550;BME280;41397;49.972;18.944;2022-07-29T00:04:15;102124.45;;;19.83;69.85
55550;BME280;41397;49.972;18.944;2022-07-29T00:09:32;102122.50;;;19.93;69.49
55550;BME280;41397;49.972;18.944;2022-07-29T00:14:50;102114.70;;;19.79;69.87
55550;BME280;41397;49.972;18.944;2022-07-29T00:20:07;102112.06;;;19.77;69.73
55550;BME280;41397;49.972;18.944;2022-07-29T00:20:27;102105.09;;;19.73;70.10
55550;BME280;41397;49.972;18.944;2022-07-29T00:25:24;102118.85;;;19.55;70.46
55550;BME280;41397;49.972;18.944;2022-07-29T00:30:41;102120.66;;;19.46;70.71
55550;BME280;41397;49.972;18.944;2022-07-29T00:35:58;102110.87;;;19.42;70.78
55550;BME280;41397;49.972;18.944;2022-07-29T00:41:11;102109.13;;;19.41;70.94
55550;BME280;41397;49.972;18.944;2022-07-29T00:46:25;102105.17;;;19.44;70.75
55550;BME280;41397;49.972;18.944;2022-07-29T00:50:41;102108.70;;;19.36;71.00
55550;BME280;41397;49.972;18.944;2022-07-29T00:51:39;102102.16;;;19.37;71.01
55550;BME280;41397;49.972;18.944;2022-07-29T00:56:53;102100.98;;;19.40;70.80
55550;BME280;41397;49.972;18.944;2022-07-29T01:02:07;102091.20;;;19.36;71.22
55550;BME280;41397;49.972;18.944;2022-07-29T01:07:20;102093.12;;;19.25;71.53
55550;BME280;41397;49.972;18.944;2022-07-29T01:12:35;102087.88;;;19.22;71.35
55550;BME280;41397;49.972;18.944;2022-07-29T01:18:01;102082.30;;;19.32;70.98
55550;BME280;41397;49.972;18.944;2022-07-29T01:28:52;102092.42;;;19.23;70.70
55550;BME280;41397;49.972;18.944;2022-07-29T01:34:11;102096.99;;;19.05;71.78
55550;BME280;41397;49.972;18.944;2022-07-29T01:39:35;102091.88;;;19.00;71.65
55550;BME280;41397;49.972;18.944;2022-07-29T01:45:00;102093.48;;;19.03;71.40
55550;BME280;41397;49.972;18.944;2022-07-29T01:50:17;102084.30;;;19.02;71.16
55550;BME280;41397;49.972;18.944;2022-07-29T01:51:25;102083.73;;;18.99;71.26
55550;BME280;41397;49.972;18.944;2022-07-29T01:55:38;102086.77;;;18.96;71.19
55550;BME280;41397;49.972;18.944;2022-07-29T02:00:54;102085.64;;;18.89;71.82
55550;BME280;41397;49.972;18.944;2022-07-29T02:06:10;102071.19;;;18.85;71.58
55550;BME280;41397;49.972;18.944;2022-07-29T02:11:24;102069.01;;;18.89;71.43
55550;BME280;41397;49.972;18.944;2022-07-29T02:16:40;102068.01;;;18.80;71.39
55550;BME280;41397;49.972;18.944;2022-07-29T02:21:43;102070.91;;;18.78;71.51
55550;BME280;41397;49.972;18.944;2022-07-29T02:21:58;102076.33;;;18.80;71.41
55550;BME280;41397;49.972;18.944;2022-07-29T02:27:15;102062.91;;;18.75;71.52
55550;BME280;41397;49.972;18.944;2022-07-29T02:32:31;102074.70;;;18.68;71.39
55550;BME280;41397;49.972;18.944;2022-07-29T02:37:46;102067.84;;;18.72;71.27
55550;BME280;41397;49.972;18.944;2022-07-29T02:43:11;102071.05;;;18.67;71.19
55550;BME280;41397;49.972;18.944;2022-07-29T02:48:37;102060.41;;;18.62;71.04
55550;BME280;41397;49.972;18.944;2022-07-29T02:52:12;102059.97;;;18.57;71.23
55550;BME280;41397;49.972;18.944;2022-07-29T02:53:54;102062.59;;;18.49;71.49
55550;BME280;41397;49.972;18.944;2022-07-29T02:59:11;102055.88;;;18.52;70.98
55550;BME280;41397;49.972;18.944;2022-07-29T03:04:27;102056.05;;;18.50;71.09
55550;BME280;41397;49.972;18.944;2022-07-29T03:09:42;102041.92;;;18.34;71.63
55550;BME280;41397;49.972;18.944;2022-07-29T03:14:59;102043.22;;;18.30;71.48
55550;BME280;41397;49.972;18.944;2022-07-29T03:20:16;102048.19;;;18.26;71.74
55550;BME280;41397;49.972;18.944;2022-07-29T03:22:27;102040.89;;;18.35;71.43
55550;BME280;41397;49.972;18.944;2022-07-29T03:25:30;102047.89;;;18.29;71.13
55550;BME280;41397;49.972;18.944;2022-07-29T03:30:44;102041.90;;;18.05;72.12
55550;BME280;41397;49.972;18.944;2022-07-29T03:35:58;102035.08;;;18.09;71.66
55550;BME280;41397;49.972;18.944;2022-07-29T03:41:13;102036.94;;;18.28;71.51
55550;BME280;41397;49.972;18.944;2022-07-29T03:46:29;102053.58;;;18.37;70.93
55550;BME280;41397;49.972;18.944;2022-07-29T03:51:44;102057.94;;;18.30;71.02
55550;BME280;41397;49.972;18.944;2022-07-29T03:52:41;102058.38;;;18.35;70.77
55550;BME280;41397;49.972;18.944;2022-07-29T03:57:00;102047.01;;;18.48;70.50
55550;BME280;41397;49.972;18.944;2022-07-29T04:02:15;102052.25;;;18.51;70.10
55550;BME280;41397;49.972;18.944;2022-07-29T04:07:29;102065.86;;;19.21;67.65
55550;BME280;41397;49.972;18.944;2022-07-29T04:12:43;102057.79;;;19.55;65.70
55550;BME280;41397;49.972;18.944;2022-07-29T04:17:56;102056.66;;;20.03;63.90
55550;BME280;41397;49.972;18.944;2022-07-29T04:22:55;102052.62;;;20.33;63.04
55550;BME280;41397;49.972;18.944;2022-07-29T04:23:10;102049.52;;;20.36;63.02
55550;BME280;41397;49.972;18.944;2022-07-29T04:28:24;102032.39;;;20.85;61.19
55550;BME280;41397;49.972;18.944;2022-07-29T04:33:40;102039.51;;;21.14;60.48
55550;BME280;41397;49.972;18.944;2022-07-29T04:38:54;102030.43;;;21.03;60.84
55550;BME280;41397;49.972;18.944;2022-07-29T04:44:08;102024.20;;;21.44;59.67
55550;BME280;41397;49.972;18.944;2022-07-29T04:49:21;102037.63;;;21.48;59.36
55550;BME280;41397;49.972;18.944;2022-07-29T04:53:09;102042.80;;;21.78;58.74
55550;BME280;41397;49.972;18.944;2022-07-29T04:54:35;102036.38;;;21.85;58.49
55550;BME280;41397;49.972;18.944;2022-07-29T04:59:48;102033.93;;;21.90;58.34
55550;BME280;41397;49.972;18.944;2022-07-29T05:05:04;102037.59;;;21.83;58.63
55550;BME280;41397;49.972;18.944;2022-07-29T05:10:21;102037.62;;;21.91;58.46
55550;BME280;41397;49.972;18.944;2022-07-29T05:15:38;102033.73;;;21.76;58.75
55550;BME280;41397;49.972;18.944;2022-07-29T05:20:55;102038.91;;;22.21;57.77
55550;BME280;41397;49.972;18.944;2022-07-29T05:23:23;102039.55;;;22.15;57.79
55550;BME280;41397;49.972;18.944;2022-07-29T05:26:12;102040.66;;;22.30;57.90
55550;BME280;41397;49.972;18.944;2022-07-29T05:31:26;102042.94;;;22.35;57.31
55550;BME280;41397;49.972;18.944;2022-07-29T05:36:40;102035.25;;;22.45;57.19
55550;BME280;41397;49.972;18.944;2022-07-29T05:41:53;102034.92;;;22.73;56.91
55550;BME280;41397;49.972;18.944;2022-07-29T05:47:07;102034.02;;;22.64;56.95
55550;BME280;41397;49.972;18.944;2022-07-29T05:52:22;102036.81;;;22.64;57.15
55550;BME280;41397;49.972;18.944;2022-07-29T05:53:36;102032.44;;;22.78;57.06
55550;BME280;41397;49.972;18.944;2022-07-29T05:57:35;102029.48;;;22.88;56.61
55550;BME280;41397;49.972;18.944;2022-07-29T06:02:49;102037.48;;;22.91;56.86
55550;BME280;41397;49.972;18.944;2022-07-29T06:08:03;102025.48;;;22.98;56.76
55550;BME280;41397;49.972;18.944;2022-07-29T06:13:20;102029.20;;;23.38;55.35
55550;BME280;41397;49.972;18.944;2022-07-29T06:18:33;102027.70;;;23.59;55.97
55550;BME280;41397;49.972;18.944;2022-07-29T06:23:47;102025.23;;;23.72;55.26
55550;BME280;41397;49.972;18.944;2022-07-29T06:24:01;102031.88;;;23.71;55.46
55550;BME280;41397;49.972;18.944;2022-07-29T06:29:01;102036.36;;;23.80;54.99
55550;BME280;41397;49.972;18.944;2022-07-29T06:34:15;102038.57;;;23.93;54.89
55550;BME280;41397;49.972;18.944;2022-07-29T06:39:29;102029.23;;;24.01;54.89
55550;BME280;41397;49.972;18.944;2022-07-29T06:44:43;102037.51;;;24.17;54.92
55550;BME280;41397;49.972;18.944;2022-07-29T06:49:57;102053.58;;;24.46;54.29
55550;BME280;41397;49.972;18.944;2022-07-29T06:54:15;102063.19;;;24.21;54.61
55550;BME280;41397;49.972;18.944;2022-07-29T06:55:13;102061.15;;;24.14;54.63
55550;BME280;41397;49.972;18.944;2022-07-29T07:00:30;102061.63;;;24.18;54.94
55550;BME280;41397;49.972;18.944;2022-07-29T07:05:44;102055.55;;;23.83;56.10
55550;BME280;41397;49.972;18.944;2022-07-29T07:10:58;102042.23;;;23.93;56.29
55550;BME280;41397;49.972;18.944;2022-07-29T07:16:12;102041.52;;;23.91;56.53
55550;BME280;41397;49.972;18.944;2022-07-29T07:21:26;102061.48;;;24.11;56.07
55550;BME280;41397;49.972;18.944;2022-07-29T07:24:29;102039.12;;;24.11;56.01
55550;BME280;41397;49.972;18.944;2022-07-29T07:26:39;102035.42;;;24.42;55.77
55550;BME280;41397;49.972;18.944;2022-07-29T07:31:53;102046.66;;;24.80;55.00
55550;BME280;41397;49.972;18.944;2022-07-29T07:37:08;102041.49;;;24.69;54.60
55550;BME280;41397;49.972;18.944;2022-07-29T07:42:23;102045.46;;;24.74;54.61
55550;BME280;41397;49.972;18.944;2022-07-29T07:47:38;102049.33;;;24.73;55.03
55550;BME280;41397;49.972;18.944;2022-07-29T07:52:55;102048.95;;;24.76;54.98
55550;BME280;41397;49.972;18.944;2022-07-29T07:54:43;102054.37;;;24.78;55.31
55550;BME280;41397;49.972;18.944;2022-07-29T07:58:10;102051.74;;;24.76;55.50
55550;BME280;41397;49.972;18.944;2022-07-29T08:03:24;102049.08;;;24.83;55.19
55550;BME280;41397;49.972;18.944;2022-07-29T08:08:38;102058.79;;;24.72;55.72
55550;BME280;41397;49.972;18.944;2022-07-29T08:13:52;102042.02;;;24.87;55.39
55550;BME280;41397;49.972;18.944;2022-07-29T08:19:05;102042.17;;;25.23;54.69
55550;BME280;41397;49.972;18.944;2022-07-29T08:24:20;102041.59;;;25.58;54.83
55550;BME280;41397;49.972;18.944;2022-07-29T08:24:57;102039.77;;;25.65;53.93
55550;BME280;41397;49.972;18.944;2022-07-29T08:29:46;102045.41;;;26.01;53.25
55550;BME280;41397;49.972;18.944;2022-07-29T08:34:59;102044.78;;;26.64;52.09
55550;BME280;41397;49.972;18.944;2022-07-29T08:40:15;102049.23;;;27.08;50.89
55550;BME280;41397;49.972;18.944;2022-07-29T08:45:29;102038.16;;;27.28;50.16
55550;BME280;41397;49.972;18.944;2022-07-29T08:50:45;102049.65;;;27.33;49.16
55550;BME280;41397;49.972;18.944;2022-07-29T08:55:14;102042.55;;;27.37;50.49
55550;BME280;41397;49.972;18.944;2022-07-29T08:56:00;102041.91;;;27.41;49.84
55550;BME280;41397;49.972;18.944;2022-07-29T09:01:17;102030.84;;;27.33;50.53
55550;BME280;41397;49.972;18.944;2022-07-29T09:06:37;102034.42;;;27.55;50.19
55550;BME280;41397;49.972;18.944;2022-07-29T09:11:52;102023.17;;;27.97;49.68
55550;BME280;41397;49.972;18.944;2022-07-29T09:17:07;102022.09;;;27.98;49.64
55550;BME280;41397;49.972;18.944;2022-07-29T09:22:29;102031.15;;;27.93;48.88
55550;BME280;41397;49.972;18.944;2022-07-29T09:25:38;102030.95;;;27.95;48.93
55550;BME280;41397;49.972;18.944;2022-07-29T09:27:50;102025.80;;;28.11;48.93
55550;BME280;41397;49.972;18.944;2022-07-29T09:33:04;102019.55;;;28.23;48.37
55550;BME280;41397;49.972;18.944;2022-07-29T09:38:18;102007.21;;;28.37;48.81
55550;BME280;41397;49.972;18.944;2022-07-29T09:43:32;102033.41;;;28.31;48.62
55550;BME280;41397;49.972;18.944;2022-07-29T09:55:52;102008.13;;;28.97;47.91
55550;BME280;41397;49.972;18.944;2022-07-29T09:59:36;101996.66;;;29.06;47.60
55550;BME280;41397;49.972;18.944;2022-07-29T10:04:50;101984.05;;;29.15;46.90
55550;BME280;41397;49.972;18.944;2022-07-29T10:10:04;101990.98;;;28.99;47.39
55550;BME280;41397;49.972;18.944;2022-07-29T10:15:18;101982.02;;;29.35;47.59
55550;BME280;41397;49.972;18.944;2022-07-29T10:20:35;101983.41;;;28.86;47.56
55550;BME280;41397;49.972;18.944;2022-07-29T10:25:49;101981.23;;;29.02;47.53
55550;BME280;41397;49.972;18.944;2022-07-29T10:26:06;101978.87;;;29.05;47.57
55550;BME280;41397;49.972;18.944;2022-07-29T10:31:06;101973.98;;;29.46;47.36
55550;BME280;41397;49.972;18.944;2022-07-29T10:47:23;101953.28;;;30.03;46.72
55550;BME280;41397;49.972;18.944;2022-07-29T10:56:30;101964.30;;;29.80;46.30
55550;BME280;41397;49.972;18.944;2022-07-29T10:58:15;101959.98;;;29.77;46.84
55550;BME280;41397;49.972;18.944;2022-07-29T11:19:48;101953.48;;;30.40;46.28
55550;BME280;41397;49.972;18.944;2022-07-29T11:26:46;101958.52;;;30.00;46.44
55550;BME280;41397;49.972;18.944;2022-07-29T11:41:27;101944.05;;;29.90;46.31
55550;BME280;41397;49.972;18.944;2022-07-29T11:46:51;101941.17;;;29.64;47.07
55550;BME280;41397;49.972;18.944;2022-07-29T11:52:05;101939.18;;;29.72;46.23
55550;BME280;41397;49.972;18.944;2022-07-29T11:57:07;101935.37;;;29.91;47.16
55550;BME280;41397;49.972;18.944;2022-07-29T11:57:22;101942.98;;;29.91;47.19
55550;BME280;41397;49.972;18.944;2022-07-29T12:02:41;101941.55;;;29.75;46.20
55550;BME280;41397;49.972;18.944;2022-07-29T12:07:58;101941.18;;;29.58;46.79
55550;BME280;41397;49.972;18.944;2022-07-29T12:13:16;101928.16;;;29.95;46.23
55550;BME280;41397;49.972;18.944;2022-07-29T12:18:31;101931.91;;;29.89;46.17
55550;BME280;41397;49.972;18.944;2022-07-29T12:23:52;101943.32;;;29.69;45.97
55550;BME280;41397;49.972;18.944;2022-07-29T12:27:22;101933.98;;;29.62;45.81
55550;BME280;41397;49.972;18.944;2022-07-29T12:29:15;101937.63;;;29.76;46.33
55550;BME280;41397;49.972;18.944;2022-07-29T12:34:31;101937.00;;;30.05;45.67
55550;BME280;41397;49.972;18.944;2022-07-29T12:39:45;101950.16;;;29.86;44.94
55550;BME280;41397;49.972;18.944;2022-07-29T12:44:59;101918.17;;;29.99;43.79
55550;BME280;41397;49.972;18.944;2022-07-29T12:50:14;101922.70;;;30.00;44.01
55550;BME280;41397;49.972;18.944;2022-07-29T12:57:46;101913.44;;;30.25;43.42
55550;BME280;41397;49.972;18.944;2022-07-29T13:11:50;101908.22;;;30.22;43.69
55550;BME280;41397;49.972;18.944;2022-07-29T13:17:15;101904.63;;;30.40;43.08
55550;BME280;41397;49.972;18.944;2022-07-29T13:22:36;101886.02;;;30.32;42.87
55550;BME280;41397;49.972;18.944;2022-07-29T13:27:50;101890.82;;;30.32;43.60
55550;BME280;41397;49.972;18.944;2022-07-29T13:28:04;101871.95;;;30.25;43.45
55550;BME280;41397;49.972;18.944;2022-07-29T13:33:05;101867.22;;;30.44;43.91
55550;BME280;41397;49.972;18.944;2022-07-29T13:38:24;101866.99;;;30.21;42.42
55550;BME280;41397;49.972;18.944;2022-07-29T13:43:38;101849.63;;;30.17;43.03
55550;BME280;41397;49.972;18.944;2022-07-29T13:48:52;101854.59;;;30.22;42.93
55550;BME280;41397;49.972;18.944;2022-07-29T13:54:05;101840.60;;;29.83;42.88
55550;BME280;41397;49.972;18.944;2022-07-29T13:58:20;101835.42;;;30.05;42.86
55550;BME280;41397;49.972;18.944;2022-07-29T13:59:19;101832.14;;;30.08;42.87
55550;BME280;41397;49.972;18.944;2022-07-29T14:04:33;101830.17;;;29.84;42.95
55550;BME280;41397;49.972;18.944;2022-07-29T14:09:47;101822.64;;;30.03;42.80
55550;BME280;41397;49.972;18.944;2022-07-29T14:15:01;101836.06;;;30.07;42.43
55550;BME280;41397;49.972;18.944;2022-07-29T14:20:14;101814.00;;;29.98;42.16
55550;BME280;41397;49.972;18.944;2022-07-29T14:25:28;101839.10;;;30.06;42.33
55550;BME280;41397;49.972;18.944;2022-07-29T14:28:34;101820.81;;;30.15;42.20
55550;BME280;41397;49.972;18.944;2022-07-29T14:30:42;101821.71;;;30.09;42.80
55550;BME280;41397;49.972;18.944;2022-07-29T14:35:56;101830.91;;;29.73;42.71
55550;BME280;41397;49.972;18.944;2022-07-29T14:41:09;101827.61;;;29.82;42.73
55550;BME280;41397;49.972;18.944;2022-07-29T14:46:23;101821.45;;;29.60;42.95
55550;BME280;41397;49.972;18.944;2022-07-29T14:51:37;101825.28;;;29.73;43.33
55550;BME280;41397;49.972;18.944;2022-07-29T14:56:51;101839.25;;;29.54;43.29
55550;BME280;41397;49.972;18.944;2022-07-29T14:58:48;101837.93;;;29.57;43.02
55550;BME280;41397;49.972;18.944;2022-07-29T15:02:09;101843.84;;;29.49;43.09
55550;BME280;41397;49.972;18.944;2022-07-29T15:07:23;101855.04;;;29.24;44.15
55550;BME280;41397;49.972;18.944;2022-07-29T15:12:37;101862.66;;;29.16;44.59
55550;BME280;41397;49.972;18.944;2022-07-29T15:17:51;101866.17;;;29.12;45.23
55550;BME280;41397;49.972;18.944;2022-07-29T15:23:04;101868.34;;;29.03;45.03
55550;BME280;41397;49.972;18.944;2022-07-29T15:28:18;101879.86;;;28.95;46.28
55550;BME280;41397;49.972;18.944;2022-07-29T15:29:02;101876.63;;;28.85;46.47
55550;BME280;41397;49.972;18.944;2022-07-29T15:33:32;101876.70;;;28.58;47.73
55550;BME280;41397;49.972;18.944;2022-07-29T15:38:46;101909.17;;;28.27;48.25
55550;BME280;41397;49.972;18.944;2022-07-29T15:44:00;101924.08;;;28.01;47.44
55550;BME280;41397;49.972;18.944;2022-07-29T15:49:13;101928.16;;;27.24;50.53
55550;BME280;41397;49.972;18.944;2022-07-29T15:54:27;101942.18;;;26.89;52.54
55550;BME280;41397;49.972;18.944;2022-07-29T15:59:15;101939.00;;;26.64;53.63
55550;BME280;41397;49.972;18.944;2022-07-29T15:59:41;101946.97;;;26.61;53.86
55550;BME280;41397;49.972;18.944;2022-07-29T16:04:54;101938.27;;;26.06;55.72
55550;BME280;41397;49.972;18.944;2022-07-29T16:10:08;101923.63;;;25.53;57.93
55550;BME280;41397;49.972;18.944;2022-07-29T16:15:22;101888.95;;;24.88;59.01
55550;BME280;41397;49.972;18.944;2022-07-29T16:20:36;101873.20;;;24.42;61.29
55550;BME280;41397;49.972;18.944;2022-07-29T16:25:50;101860.34;;;24.18;65.25
55550;BME280;41397;49.972;18.944;2022-07-29T16:29:29;101882.88;;;24.17;66.62
55550;BME280;41397;49.972;18.944;2022-07-29T16:31:03;101880.30;;;24.15;66.82
55550;BME280;41397;49.972;18.944;2022-07-29T16:36:17;101868.82;;;23.87;67.82
55550;BME280;41397;49.972;18.944;2022-07-29T16:41:31;101879.45;;;23.91;68.91
55550;BME280;41397;49.972;18.944;2022-07-29T16:46:45;101863.29;;;24.02;69.30
55550;BME280;41397;49.972;18.944;2022-07-29T16:51:59;101874.23;;;23.88;70.81
55550;BME280;41397;49.972;18.944;2022-07-29T16:57:16;101872.92;;;23.76;71.98
55550;BME280;41397;49.972;18.944;2022-07-29T16:59:43;101862.37;;;23.86;72.10
55550;BME280;41397;49.972;18.944;2022-07-29T17:02:33;101869.13;;;23.92;72.21
55550;BME280;41397;49.972;18.944;2022-07-29T17:07:50;101851.84;;;23.74;73.40
55550;BME280;41397;49.972;18.944;2022-07-29T17:13:07;101858.88;;;23.84;73.18
55550;BME280;41397;49.972;18.944;2022-07-29T17:18:24;101866.54;;;23.90;73.02
55550;BME280;41397;49.972;18.944;2022-07-29T17:23:57;101872.05;;;23.99;72.24
55550;BME280;41397;49.972;18.944;2022-07-29T17:29:10;101885.30;;;23.82;73.27
55550;BME280;41397;49.972;18.944;2022-07-29T17:30:01;101883.86;;;23.86;73.38
55550;BME280;41397;49.972;18.944;2022-07-29T17:34:25;101890.75;;;23.98;72.39
55550;BME280;41397;49.972;18.944;2022-07-29T17:39:40;101882.44;;;23.90;72.94
55550;BME280;41397;49.972;18.944;2022-07-29T17:44:55;101852.81;;;23.81;73.46
55550;BME280;41397;49.972;18.944;2022-07-29T17:50:08;101848.84;;;23.75;73.83
55550;BME280;41397;49.972;18.944;2022-07-29T17:55:22;101872.26;;;23.74;74.54
55550;BME280;41397;49.972;18.944;2022-07-29T18:00:24;101875.32;;;23.56;75.77
55550;BME280;41397;49.972;18.944;2022-07-29T18:00:38;101881.10;;;23.55;75.74
55550;BME280;41397;49.972;18.944;2022-07-29T18:05:52;101874.02;;;23.44;75.79
55550;BME280;41397;49.972;18.944;2022-07-29T18:11:05;101879.60;;;23.44;75.96
55550;BME280;41397;49.972;18.944;2022-07-29T18:16:19;101896.74;;;23.64;74.87
55550;BME280;41397;49.972;18.944;2022-07-29T18:21:33;101904.05;;;23.65;74.61
55550;BME280;41397;49.972;18.944;2022-07-29T18:26:47;101908.95;;;23.71;74.61
55550;BME280;41397;49.972;18.944;2022-07-29T18:30:38;101909.52;;;23.58;75.20
55550;BME280;41397;49.972;18.944;2022-07-29T18:32:01;101912.31;;;23.58;75.22
55550;BME280;41397;49.972;18.944;2022-07-29T18:37:16;101923.09;;;23.38;76.23
55550;BME280;41397;49.972;18.944;2022-07-29T18:42:33;101906.02;;;23.33;76.52
55550;BME280;41397;49.972;18.944;2022-07-29T18:47:50;101911.23;;;23.36;76.42
55550;BME280;41397;49.972;18.944;2022-07-29T18:53:07;101927.45;;;23.72;75.33
55550;BME280;41397;49.972;18.944;2022-07-29T18:58:24;101924.48;;;23.74;74.59
55550;BME280;41397;49.972;18.944;2022-07-29T19:00:52;101919.46;;;23.61;75.17
55550;BME280;41397;49.972;18.944;2022-07-29T19:03:41;101921.13;;;23.70;74.81
55550;BME280;41397;49.972;18.944;2022-07-29T19:08:55;101914.91;;;23.60;74.78
55550;BME280;41397;49.972;18.944;2022-07-29T19:14:09;101915.98;;;23.59;75.68
55550;BME280;41397;49.972;18.944;2022-07-29T19:19:23;101915.01;;;23.43;77.63
55550;BME280;41397;49.972;18.944;2022-07-29T19:24:37;101903.68;;;23.45;77.87
55550;BME280;41397;49.972;18.944;2022-07-29T19:29:51;101896.71;;;23.10;80.11
55550;BME280;41397;49.972;18.944;2022-07-29T19:31:05;101892.03;;;23.02;80.33
55550;BME280;41397;49.972;18.944;2022-07-29T19:35:05;101906.84;;;23.02;80.85
55550;BME280;41397;49.972;18.944;2022-07-29T19:40:31;101897.81;;;23.00;80.73
55550;BME280;41397;49.972;18.944;2022-07-29T19:45:44;101897.70;;;23.25;79.46
55550;BME280;41397;49.972;18.944;2022-07-29T19:50:58;101912.43;;;23.42;78.24
55550;BME280;41397;49.972;18.944;2022-07-29T19:56:12;101900.30;;;23.58;77.04
55550;BME280;41397;49.972;18.944;2022-07-29T20:01:20;101913.38;;;23.57;76.37
55550;BME280;41397;49.972;18.944;2022-07-29T20:01:35;101915.28;;;23.57;76.50
55550;BME280;41397;49.972;18.944;2022-07-29T20:06:48;101917.52;;;23.61;75.89
55550;BME280;41397;49.972;18.944;2022-07-29T20:12:02;101907.74;;;23.65;75.71
55550;BME280;41397;49.972;18.944;2022-07-29T20:17:18;101910.39;;;23.59;75.92
55550;BME280;41397;49.972;18.944;2022-07-29T20:22:35;101910.39;;;23.59;76.12
55550;BME280;41397;49.972;18.944;2022-07-29T20:28:05;101906.91;;;23.57;76.42
55550;BME280;41397;49.972;18.944;2022-07-29T20:31:35;101898.02;;;23.30;77.74
55550;BME280;41397;49.972;18.944;2022-07-29T20:33:26;101892.23;;;23.32;77.78
55550;BME280;41397;49.972;18.944;2022-07-29T20:38:40;101885.84;;;23.23;78.58
55550;BME280;41397;49.972;18.944;2022-07-29T20:43:54;101884.69;;;23.09;79.53
55550;BME280;41397;49.972;18.944;2022-07-29T20:49:08;101888.91;;;22.97;80.21
55550;BME280;41397;49.972;18.944;2022-07-29T20:54:22;101884.89;;;22.91;80.62
55550;BME280;41397;49.972;18.944;2022-07-29T20:59:36;101871.84;;;22.92;80.68
55550;BME280;41397;49.972;18.944;2022-07-29T21:01:49;101867.39;;;22.66;81.65
55550;BME280;41397;49.972;18.944;2022-07-29T21:04:50;101870.73;;;22.53;82.77
55550;BME280;41397;49.972;18.944;2022-07-29T21:10:04;101863.41;;;22.52;83.22
55550;BME280;41397;49.972;18.944;2022-07-29T21:15:18;101870.20;;;22.58;82.97
55550;BME280;41397;49.972;18.944;2022-07-29T21:20:33;101888.55;;;22.36;84.08
55550;BME280;41397;49.972;18.944;2022-07-29T21:25:47;101893.76;;;22.47;83.69
55550;BME280;41397;49.972;18.944;2022-07-29T21:31:09;101887.32;;;22.47;83.84
55550;BME280;41397;49.972;18.944;2022-07-29T21:32:07;101895.52;;;22.48;83.71
55550;BME280;41397;49.972;18.944;2022-07-29T21:36:24;101893.24;;;22.44;83.81
55550;BME280;41397;49.972;18.944;2022-07-29T21:41:38;101883.84;;;22.36;84.34
55550;BME280;41397;49.972;18.944;2022-07-29T21:46:55;101897.44;;;22.31;84.84
55550;BME280;41397;49.972;18.944;2022-07-29T21:52:12;101873.56;;;22.29;85.16
55550;BME280;41397;49.972;18.944;2022-07-29T21:57:29;101871.84;;;22.03;86.13
55550;BME280;41397;49.972;18.944;2022-07-29T22:02:26;101865.40;;;22.03;86.21
55550;BME280;41397;49.972;18.944;2022-07-29T22:02:52;101867.48;;;22.01;86.35
55550;BME280;41397;49.972;18.944;2022-07-29T22:08:10;101868.00;;;21.80;87.23
55550;BME280;41397;49.972;18.944;2022-07-29T22:13:25;101861.05;;;21.67;87.77
55550;BME280;41397;49.972;18.944;2022-07-29T22:18:39;101859.45;;;21.40;88.61
55550;BME280;41397;49.972;18.944;2022-07-29T22:24:38;101846.05;;;21.44;88.03
55550;BME280;41397;49.972;18.944;2022-07-29T22:29:51;101838.24;;;21.39;87.91
55550;BME280;41397;49.972;18.944;2022-07-29T22:35:05;101825.37;;;21.55;87.02
55550;BME280;41397;49.972;18.944;2022-07-29T22:40:20;101813.87;;;21.49;86.81
55550;BME280;41397;49.972;18.944;2022-07-29T22:45:34;101813.36;;;21.62;85.61
55550;BME280;41397;49.972;18.944;2022-07-29T22:49:38;101792.65;;;21.65;85.30
55550;BME280;41397;49.972;18.944;2022-07-29T22:50:47;101795.44;;;21.57;85.35
55550;BME280;41397;49.972;18.944;2022-07-29T22:56:01;101777.68;;;21.49;85.46
55550;BME280;41397;49.972;18.944;2022-07-29T23:01:16;101779.09;;;21.37;85.78
55550;BME280;41397;49.972;18.944;2022-07-29T23:06:30;101781.12;;;21.27;85.81
55550;BME280;41397;49.972;18.944;2022-07-29T23:11:43;101783.05;;;21.35;85.58
55550;BME280;41397;49.972;18.944;2022-07-29T23:16:58;101770.85;;;21.36;85.35
55550;BME280;41397;49.972;18.944;2022-07-29T23:19:52;101773.99;;;21.33;85.22
55550;BME280;41397;49.972;18.944;2022-07-29T23:22:11;101768.96;;;21.28;84.98
55550;BME280;41397;49.972;18.944;2022-07-29T23:27:25;101762.15;;;21.31;84.67
55550;BME280;41397;49.972;18.944;2022-07-29T23:32:39;101747.91;;;21.17;84.64
55550;BME280;41397;49.972;18.944;2022-07-29T23:37:53;101741.30;;;21.26;84.36
55550;BME280;41397;49.972;18.944;2022-07-29T23:43:09;101742.85;;;21.21;84.13
55550;BME280;41397;49.972;18.944;2022-07-29T23:48:25;101738.84;;;20.99;84.62
55550;BME280;41397;49.972;18.944;2022-07-29T23:50:07;101730.84;;;21.04;84.64
55550;BME280;41397;49.972;18.944;2022-07-29T23:53:42;101735.37;;;21.05;84.58
55550;BME280;41397;49.972;18.944;2022-07-29T23:59:00;101740.22;;;21.03;84.42
